Time;durP1;ratioP1;P1;durP2;ratioP2;P2;SDS_P1;SDS_P2;PMS_P1;PMS_P2;Temp;Humidity;BMP_temperature;BMP_pressure;BME280_temperature;BME280_humidity;BME280_pressure;Samples;Min_cycle;Max_cycle;Signal;HPM_P1;HPM_P2
2024/02/26 00:01:24;;;;;;;4.30;1.73;;;8.70;99.90;;;;;;5069574;28;20422;-76
2024/02/26 00:04:10;;;;;;;2.40;1.60;;;8.60;99.90;;;;;;5069590;28;20848;-75
2024/02/26 00:06:55;;;;;;;4.10;1.87;;;8.60;99.90;;;;;;5072526;28;20503;-76
2024/02/26 00:09:41;;;;;;;4.00;1.53;;;8.50;99.90;;;;;;5071510;28;20495;-76
2024/02/26 00:12:27;;;;;;;1.83;1.20;;;8.50;99.90;;;;;;5068836;28;20472;-76
2024/02/26 00:15:12;;;;;;;1.70;1.00;;;8.50;99.90;;;;;;5070812;28;20447;-76
2024/02/26 00:18:00;;;;;;;2.57;1.40;;;8.50;99.90;;;;;;5069969;28;20459;-74
2024/02/26 00:20:45;;;;;;;5.20;1.60;;;8.50;99.90;;;;;;5071513;28;20778;-76
2024/02/26 00:23:31;;;;;;;5.60;1.87;;;8.40;99.90;;;;;;5066697;28;20536;-75
2024/02/26 00:26:17;;;;;;;3.30;1.73;;;8.50;99.90;;;;;;5067571;28;20434;-76
2024/02/26 00:29:02;;;;;;;2.53;1.30;;;8.50;99.90;;;;;;5065289;28;20509;-73
2024/02/26 00:31:48;;;;;;;3.00;1.80;;;8.50;99.90;;;;;;5075746;28;20518;-76
2024/02/26 00:34:35;;;;;;;4.40;1.63;;;8.50;99.90;;;;;;5073751;28;20478;-76
2024/02/26 00:37:21;;;;;;;1.90;1.20;;;8.50;99.90;;;;;;5057356;28;20922;-76
2024/02/26 00:40:08;;;;;;;3.40;1.60;;;8.50;99.90;;;;;;5052710;28;20423;-73
2024/02/26 00:42:54;;;;;;;3.00;1.60;;;8.50;99.90;;;;;;5046896;28;20476;-76
2024/02/26 00:45:40;;;;;;;2.20;1.50;;;8.50;99.90;;;;;;5051567;28;20804;-72
2024/02/26 00:48:26;;;;;;;2.80;1.17;;;8.50;99.90;;;;;;5052151;28;20458;-73
2024/02/26 00:51:13;;;;;;;2.00;1.50;;;8.50;99.90;;;;;;5049849;28;20461;-75
2024/02/26 00:53:58;;;;;;;2.20;1.30;;;8.60;99.90;;;;;;5052648;28;20417;-76
2024/02/26 00:56:44;;;;;;;2.20;1.47;;;8.60;99.90;;;;;;5048968;28;20668;-74
2024/02/26 00:59:29;;;;;;;2.70;1.40;;;8.60;99.90;;;;;;5049790;28;20814;-75
2024/02/26 01:02:15;;;;;;;2.90;1.53;;;8.50;99.90;;;;;;5047399;28;20485;-76
2024/02/26 01:05:00;;;;;;;3.00;1.60;;;8.50;99.90;;;;;;5049629;28;20442;-76
2024/02/26 01:07:48;;;;;;;3.40;1.73;;;8.50;99.90;;;;;;5051807;28;21112;-76
2024/02/26 01:10:33;;;;;;;2.43;1.63;;;8.50;99.90;;;;;;5046727;28;20458;-75
2024/02/26 01:13:19;;;;;;;2.90;1.67;;;8.50;99.90;;;;;;5049025;28;20451;-75
2024/02/26 01:16:05;;;;;;;3.20;1.33;;;8.50;99.90;;;;;;5048845;28;20509;-74
2024/02/26 01:18:51;;;;;;;2.97;1.60;;;8.60;99.90;;;;;;5048811;28;20552;-76
2024/02/26 01:21:37;;;;;;;2.93;1.60;;;8.50;99.90;;;;;;5043428;28;20464;-73
2024/02/26 01:24:24;;;;;;;3.03;1.67;;;8.50;99.90;;;;;;5031457;28;20432;-74
2024/02/26 01:27:09;;;;;;;4.23;1.70;;;8.60;99.90;;;;;;5048785;28;20845;-74
2024/02/26 01:29:55;;;;;;;2.17;1.33;;;8.60;99.90;;;;;;5032047;28;20875;-76
2024/02/26 01:32:41;;;;;;;2.80;1.40;;;8.50;99.90;;;;;;5050279;28;20524;-75
2024/02/26 01:35:27;;;;;;;2.93;1.33;;;8.60;99.90;;;;;;5042670;28;20496;-76
2024/02/26 01:38:12;;;;;;;6.73;1.47;;;8.60;99.90;;;;;;5035722;28;20554;-74
2024/02/26 01:40:59;;;;;;;2.50;1.50;;;8.50;99.90;;;;;;5030908;28;20446;-76
2024/02/26 01:43:45;;;;;;;3.03;1.40;;;8.60;99.90;;;;;;5036469;28;20949;-76
2024/02/26 01:46:32;;;;;;;3.10;1.20;;;8.60;99.90;;;;;;5041983;28;20471;-77
2024/02/26 01:49:17;;;;;;;2.40;1.40;;;8.60;99.90;;;;;;5045469;28;20455;-74
2024/02/26 01:52:04;;;;;;;3.30;1.50;;;8.60;99.90;;;;;;5044699;28;20525;-77
2024/02/26 01:54:51;;;;;;;4.60;1.60;;;8.50;99.90;;;;;;5053786;28;20588;-76
2024/02/26 01:57:38;;;;;;;2.70;1.60;;;8.50;99.90;;;;;;5054115;28;21022;-75
2024/02/26 02:00:24;;;;;;;4.83;1.60;;;8.50;99.90;;;;;;5044831;28;20561;-76
2024/02/26 02:03:10;;;;;;;2.60;1.33;;;8.50;99.90;;;;;;5047165;28;20553;-75
2024/02/26 02:05:55;;;;;;;2.10;1.40;;;8.50;99.90;;;;;;5050282;28;20545;-76
2024/02/26 02:08:41;;;;;;;4.83;1.23;;;8.50;99.90;;;;;;5049165;28;20548;-76
2024/02/26 02:11:27;;;;;;;3.73;2.00;;;8.40;99.90;;;;;;5053101;28;20945;-76
2024/02/26 02:14:14;;;;;;;2.83;1.87;;;8.40;99.90;;;;;;5039732;28;20466;-76
2024/02/26 02:17:00;;;;;;;2.73;1.43;;;8.40;99.90;;;;;;5041205;28;20823;-75
2024/02/26 02:19:46;;;;;;;6.50;1.70;;;8.30;99.90;;;;;;5042851;28;21114;-76
2024/02/26 02:22:33;;;;;;;2.60;1.37;;;8.40;99.90;;;;;;5044989;28;20529;-76
2024/02/26 02:25:18;;;;;;;5.90;1.50;;;8.30;99.90;;;;;;5042652;28;20451;-75
2024/02/26 02:28:05;;;;;;;3.17;1.57;;;8.30;99.90;;;;;;5046811;28;20555;-74
2024/02/26 02:30:50;;;;;;;2.67;1.60;;;8.40;99.90;;;;;;5039139;28;20826;-73
2024/02/26 02:33:37;;;;;;;3.33;1.37;;;8.30;99.90;;;;;;5051445;28;20464;-76
2024/02/26 02:36:22;;;;;;;3.80;1.53;;;8.40;99.90;;;;;;5050148;28;20466;-77
2024/02/26 02:39:09;;;;;;;2.40;1.63;;;8.40;99.90;;;;;;5052964;28;20580;-76
2024/02/26 02:41:55;;;;;;;4.13;1.50;;;8.40;99.90;;;;;;5048781;28;20457;-72
2024/02/26 02:44:41;;;;;;;3.47;1.50;;;8.30;99.90;;;;;;5049631;28;20496;-75
2024/02/26 02:47:26;;;;;;;2.77;1.37;;;8.30;99.90;;;;;;5048347;28;20598;-76
2024/02/26 02:50:12;;;;;;;2.50;1.67;;;8.30;99.90;;;;;;5051669;28;20494;-74
2024/02/26 02:52:57;;;;;;;2.40;1.63;;;8.40;99.90;;;;;;5048353;28;20504;-76
2024/02/26 02:55:45;;;;;;;3.70;1.30;;;8.40;99.90;;;;;;5049778;28;20465;-76
2024/02/26 02:58:30;;;;;;;6.17;1.60;;;8.30;99.90;;;;;;5050264;28;21019;-77
2024/02/26 03:01:16;;;;;;;3.23;1.10;;;8.40;99.90;;;;;;5045649;28;20450;-76
2024/02/26 03:04:02;;;;;;;2.90;1.43;;;8.40;99.90;;;;;;5046173;28;20940;-76
2024/02/26 03:06:47;;;;;;;7.90;2.10;;;8.30;99.90;;;;;;5048951;28;21035;-75
2024/02/26 03:09:33;;;;;;;2.10;1.40;;;8.30;99.90;;;;;;5049348;28;20991;-76
2024/02/26 03:12:20;;;;;;;3.87;1.63;;;8.20;99.90;;;;;;5048746;28;21058;-76
2024/02/26 03:15:07;;;;;;;3.50;1.93;;;8.20;99.90;;;;;;5046560;28;20470;-75
2024/02/26 03:17:52;;;;;;;2.03;1.23;;;8.20;99.90;;;;;;5049962;28;21097;-76
2024/02/26 03:20:38;;;;;;;3.80;1.80;;;8.20;99.90;;;;;;5048392;28;20552;-74
2024/02/26 03:23:23;;;;;;;4.17;1.70;;;8.20;99.90;;;;;;5047712;28;20763;-74
2024/02/26 03:26:13;;;;;;;2.30;1.47;;;8.20;99.90;;;;;;5046979;28;20450;-74
2024/02/26 03:29:01;;;;;;;3.03;2.17;;;8.20;99.90;;;;;;5053273;28;20957;-74
2024/02/26 03:31:47;;;;;;;3.57;1.70;;;8.20;99.90;;;;;;5049657;28;20481;-75
2024/02/26 03:34:34;;;;;;;2.30;1.73;;;8.20;99.90;;;;;;5055357;28;20441;-74
2024/02/26 03:37:19;;;;;;;2.10;1.40;;;8.10;99.90;;;;;;5052685;28;20454;-75
2024/02/26 03:40:06;;;;;;;2.77;1.60;;;8.10;99.90;;;;;;5057901;28;20457;-76
2024/02/26 03:42:53;;;;;;;2.90;1.50;;;8.00;99.90;;;;;;5060688;28;20960;-76
2024/02/26 03:45:40;;;;;;;4.50;2.20;;;8.00;99.90;;;;;;5052526;28;20992;-73
2024/02/26 03:48:26;;;;;;;2.70;1.70;;;7.90;99.90;;;;;;5054452;28;20454;-76
2024/02/26 03:51:12;;;;;;;6.17;2.13;;;8.00;99.90;;;;;;5051849;28;20433;-76
2024/02/26 03:53:57;;;;;;;3.30;1.60;;;7.90;99.90;;;;;;5052504;28;20808;-76
2024/02/26 03:56:43;;;;;;;3.20;1.70;;;7.90;99.90;;;;;;5053677;28;20526;-72
2024/02/26 03:59:29;;;;;;;7.13;1.77;;;7.90;99.90;;;;;;5053671;28;20805;-76
2024/02/26 04:02:17;;;;;;;3.70;1.80;;;7.90;99.90;;;;;;5052590;28;20845;-75
2024/02/26 04:05:02;;;;;;;9.33;2.37;;;8.00;99.90;;;;;;5054736;28;20582;-77
2024/02/26 04:07:48;;;;;;;3.20;1.70;;;7.90;99.90;;;;;;5057266;28;20587;-77
2024/02/26 04:10:38;;;;;;;3.17;1.80;;;7.90;99.90;;;;;;5055911;28;20438;-76
2024/02/26 04:13:24;;;;;;;2.40;1.60;;;7.90;99.90;;;;;;5053802;28;20469;-74
2024/02/26 04:16:10;;;;;;;4.40;2.27;;;7.90;99.90;;;;;;5051818;28;20438;-76
2024/02/26 04:18:57;;;;;;;2.20;1.80;;;7.80;99.90;;;;;;5051609;28;20430;-76
2024/02/26 04:21:43;;;;;;;2.90;1.87;;;7.70;99.90;;;;;;5054978;28;20472;-76
2024/02/26 04:24:28;;;;;;;3.80;1.90;;;7.70;99.90;;;;;;5053509;28;20451;-76
2024/02/26 04:27:14;;;;;;;2.80;1.93;;;7.70;99.90;;;;;;5052965;28;20469;-76
2024/02/26 04:30:00;;;;;;;2.63;1.70;;;7.70;99.90;;;;;;5054799;28;20456;-75
2024/02/26 04:32:45;;;;;;;2.70;1.70;;;7.70;99.90;;;;;;5056313;28;20518;-76
2024/02/26 04:35:35;;;;;;;3.17;1.50;;;7.70;99.90;;;;;;5052605;28;20445;-76
2024/02/26 04:38:22;;;;;;;2.17;1.70;;;7.70;99.90;;;;;;5053322;28;20446;-76
2024/02/26 04:41:07;;;;;;;9.33;1.80;;;7.70;99.90;;;;;;5053832;28;21605;-76
2024/02/26 04:43:53;;;;;;;2.20;1.43;;;7.70;99.90;;;;;;5052950;28;20446;-76
2024/02/26 04:46:39;;;;;;;2.60;1.73;;;7.80;99.90;;;;;;5053296;28;20465;-76
2024/02/26 04:49:25;;;;;;;4.53;1.90;;;7.80;99.90;;;;;;5050093;28;20443;-73
2024/02/26 04:52:12;;;;;;;2.97;1.83;;;7.70;99.90;;;;;;5055588;28;20457;-76
2024/02/26 04:54:59;;;;;;;2.73;1.73;;;7.70;99.90;;;;;;5053116;28;20452;-76
2024/02/26 04:57:45;;;;;;;2.90;1.73;;;7.70;99.90;;;;;;5053398;28;21026;-76
2024/02/26 05:00:31;;;;;;;3.00;1.47;;;7.70;99.90;;;;;;5052853;28;20987;-76
2024/02/26 05:03:16;;;;;;;2.20;1.53;;;7.70;99.90;;;;;;5052449;28;20493;-73
2024/02/26 05:06:02;;;;;;;2.97;2.10;;;7.70;99.90;;;;;;5054211;28;20465;-76
2024/02/26 05:08:50;;;;;;;2.53;1.67;;;7.70;99.90;;;;;;5054340;28;20443;-76
2024/02/26 05:11:35;;;;;;;3.10;1.90;;;7.70;99.90;;;;;;5054320;28;20449;-75
2024/02/26 05:14:21;;;;;;;3.37;1.97;;;7.70;99.90;;;;;;5053970;28;20433;-74
2024/02/26 05:17:07;;;;;;;8.90;2.10;;;7.80;99.90;;;;;;5052781;28;20470;-76
2024/02/26 05:19:52;;;;;;;1.87;1.40;;;7.80;99.90;;;;;;5053786;28;20428;-77
2024/02/26 05:22:38;;;;;;;2.63;1.77;;;7.70;99.90;;;;;;5054162;28;20434;-76
2024/02/26 05:25:25;;;;;;;3.47;2.33;;;7.80;99.90;;;;;;5053737;28;20895;-74
2024/02/26 05:28:10;;;;;;;2.40;1.57;;;7.80;99.90;;;;;;5055919;28;20458;-74
2024/02/26 05:30:56;;;;;;;4.47;1.87;;;7.80;99.90;;;;;;5055151;28;20431;-74
2024/02/26 05:33:42;;;;;;;4.83;1.67;;;7.80;99.90;;;;;;5056326;28;20567;-74
2024/02/26 05:36:32;;;;;;;8.23;1.67;;;7.80;99.90;;;;;;5053793;28;20949;-75
2024/02/26 05:39:19;;;;;;;3.40;1.77;;;7.80;99.90;;;;;;5049115;28;20461;-74
2024/02/26 05:42:06;;;;;;;4.50;1.90;;;7.80;99.90;;;;;;5052994;28;20445;-74
2024/02/26 05:44:52;;;;;;;2.37;1.53;;;7.80;99.90;;;;;;5054112;28;20504;-75
2024/02/26 05:47:42;;;;;;;2.10;1.40;;;7.80;99.90;;;;;;5052501;28;20458;-74
2024/02/26 05:50:27;;;;;;;3.43;1.57;;;7.90;99.90;;;;;;5052615;28;21042;-74
2024/02/26 05:53:13;;;;;;;11.13;4.17;;;7.80;99.90;;;;;;5051377;28;20530;-74
2024/02/26 05:55:59;;;;;;;3.13;2.50;;;7.80;99.90;;;;;;5052332;28;20800;-75
2024/02/26 05:58:46;;;;;;;5.87;1.90;;;7.90;99.90;;;;;;5054571;28;20960;-74
2024/02/26 06:01:33;;;;;;;2.60;1.50;;;8.00;99.90;;;;;;5051018;28;20953;-76
2024/02/26 06:04:18;;;;;;;2.13;1.43;;;7.90;99.90;;;;;;5051743;28;20576;-73
2024/02/26 06:07:05;;;;;;;3.37;1.50;;;7.90;99.90;;;;;;5051937;28;20870;-73
2024/02/26 06:09:50;;;;;;;3.10;1.10;;;8.00;99.90;;;;;;5052816;28;20443;-75
2024/02/26 06:12:36;;;;;;;1.93;1.50;;;7.90;99.90;;;;;;5049741;28;20485;-74
2024/02/26 06:15:23;;;;;;;2.00;1.30;;;7.90;99.90;;;;;;5048118;28;20442;-77
2024/02/26 06:18:09;;;;;;;2.23;1.33;;;7.90;99.90;;;;;;5052126;28;20443;-73
2024/02/26 06:20:55;;;;;;;4.43;2.40;;;7.90;99.90;;;;;;5052141;28;20517;-74
2024/02/26 06:23:41;;;;;;;1.57;1.07;;;7.90;99.90;;;;;;5052458;28;20472;-75
2024/02/26 06:26:28;;;;;;;1.90;1.30;;;7.90;99.90;;;;;;5054192;28;20438;-76
2024/02/26 06:29:14;;;;;;;2.40;1.47;;;8.00;99.90;;;;;;5050443;28;20443;-74
2024/02/26 06:32:01;;;;;;;4.60;1.50;;;8.00;99.90;;;;;;5052707;28;20437;-74
2024/02/26 06:34:47;;;;;;;1.73;1.00;;;8.00;99.90;;;;;;5053252;28;20448;-74
2024/02/26 06:37:33;;;;;;;2.50;1.60;;;8.00;99.90;;;;;;5049333;28;21051;-74
2024/02/26 06:40:19;;;;;;;4.07;1.53;;;8.10;99.90;;;;;;5051131;28;20586;-74
2024/02/26 06:43:05;;;;;;;8.57;1.47;;;8.00;99.90;;;;;;5049673;28;20783;-74
2024/02/26 06:45:50;;;;;;;1.77;1.30;;;8.00;99.90;;;;;;5050273;28;20776;-74
2024/02/26 06:48:38;;;;;;;1.70;1.30;;;8.00;99.90;;;;;;5052606;28;20440;-74
2024/02/26 06:51:23;;;;;;;4.97;1.43;;;8.00;99.90;;;;;;5050982;28;20555;-77
2024/02/26 06:54:09;;;;;;;2.93;1.27;;;8.00;99.90;;;;;;5052978;28;20470;-74
2024/02/26 06:56:54;;;;;;;5.10;1.50;;;7.90;99.90;;;;;;5051689;28;20453;-74
2024/02/26 06:59:40;;;;;;;2.97;1.60;;;8.00;99.90;;;;;;5052348;28;20590;-74
2024/02/26 07:02:26;;;;;;;7.13;1.70;;;8.00;99.90;;;;;;5050304;28;20508;-74
2024/02/26 07:05:13;;;;;;;2.37;1.53;;;8.00;99.90;;;;;;5050205;28;20811;-74
2024/02/26 07:07:58;;;;;;;1.83;1.20;;;8.00;99.90;;;;;;5051546;28;20426;-74
2024/02/26 07:10:44;;;;;;;3.03;1.50;;;7.90;99.90;;;;;;5054494;28;20569;-74
2024/02/26 07:13:30;;;;;;;2.23;1.40;;;7.90;99.90;;;;;;5054108;28;20852;-75
2024/02/26 07:16:16;;;;;;;2.30;1.67;;;7.90;99.90;;;;;;5057189;28;20442;-76
2024/02/26 07:19:02;;;;;;;2.20;1.50;;;7.90;99.90;;;;;;5055787;28;20453;-75
2024/02/26 07:21:49;;;;;;;2.00;1.40;;;7.90;99.90;;;;;;5056757;28;20950;-74
2024/02/26 07:24:34;;;;;;;4.70;1.43;;;7.90;99.90;;;;;;5056033;28;20462;-74
2024/02/26 07:27:21;;;;;;;2.00;1.33;;;7.90;99.90;;;;;;5053651;28;20453;-74
2024/02/26 07:30:07;;;;;;;5.80;3.70;;;8.00;99.90;;;;;;5056425;28;20447;-74
2024/02/26 07:32:53;;;;;;;2.33;1.90;;;8.00;99.90;;;;;;5053851;28;20460;-74
2024/02/26 07:35:39;;;;;;;3.60;2.07;;;8.10;99.90;;;;;;5057274;28;20965;-73
2024/02/26 07:38:26;;;;;;;3.40;2.20;;;8.10;99.90;;;;;;5053842;28;20465;-76
2024/02/26 07:41:12;;;;;;;17.17;10.10;;;8.10;99.90;;;;;;5050993;28;20512;-74
2024/02/26 07:43:58;;;;;;;102.30;50.77;;;8.10;99.90;;;;;;5057060;28;20427;-74
2024/02/26 07:46:44;;;;;;;73.87;37.10;;;8.10;99.90;;;;;;5058681;28;20542;-74
2024/02/26 07:49:30;;;;;;;44.97;20.27;;;8.10;99.90;;;;;;5057317;28;20928;-74
2024/02/26 07:52:15;;;;;;;16.53;7.13;;;8.10;99.90;;;;;;5054644;28;20430;-74
2024/02/26 07:55:02;;;;;;;6.47;3.20;;;8.20;99.90;;;;;;5049050;28;20440;-74
2024/02/26 07:57:48;;;;;;;11.33;4.03;;;8.20;99.90;;;;;;5056543;28;20531;-74
2024/02/26 08:00:33;;;;;;;35.13;14.83;;;8.30;99.90;;;;;;5051882;28;20442;-74
2024/02/26 08:03:19;;;;;;;24.10;11.10;;;8.30;99.90;;;;;;5057370;28;20412;-75
2024/02/26 08:06:05;;;;;;;20.23;9.23;;;8.30;99.90;;;;;;5054039;28;20799;-74
2024/02/26 08:08:51;;;;;;;11.77;5.23;;;8.30;99.90;;;;;;5054433;28;20429;-74
2024/02/26 08:11:38;;;;;;;11.40;5.03;;;8.40;99.90;;;;;;5052471;28;20477;-74
2024/02/26 08:14:24;;;;;;;6.20;3.67;;;8.40;99.90;;;;;;5050165;28;20531;-75
2024/02/26 08:17:09;;;;;;;9.47;4.90;;;8.40;99.90;;;;;;5050033;28;20581;-75
2024/02/26 08:19:56;;;;;;;19.67;9.50;;;8.50;99.90;;;;;;5051337;28;20429;-74
2024/02/26 08:22:42;;;;;;;8.00;4.40;;;8.50;99.90;;;;;;5055437;28;20495;-74
2024/02/26 08:25:27;;;;;;;12.70;6.30;;;8.50;99.90;;;;;;5053664;28;20513;-74
2024/02/26 08:28:17;;;;;;;16.27;8.10;;;8.50;99.90;;;;;;5051531;28;21004;-74
2024/02/26 08:31:03;;;;;;;11.97;5.90;;;8.60;99.90;;;;;;5051978;28;20450;-74
2024/02/26 08:33:49;;;;;;;11.10;5.83;;;8.70;99.90;;;;;;5054108;28;20843;-74
2024/02/26 08:36:35;;;;;;;9.30;5.67;;;8.70;99.90;;;;;;5056532;28;20450;-74
2024/02/26 08:39:20;;;;;;;10.70;5.13;;;8.80;99.90;;;;;;5055315;28;20523;-74
2024/02/26 08:42:06;;;;;;;10.80;5.13;;;8.80;99.90;;;;;;5053890;28;20430;-74
2024/02/26 08:44:54;;;;;;;119.77;34.60;;;8.90;99.90;;;;;;5053003;28;20434;-74
2024/02/26 08:47:40;;;;;;;100.00;29.60;;;8.90;99.90;;;;;;5055377;28;20989;-74
2024/02/26 08:50:26;;;;;;;51.47;16.13;;;8.90;99.90;;;;;;5059544;28;20446;-74
2024/02/26 08:53:12;;;;;;;17.97;7.10;;;9.00;99.90;;;;;;5059258;28;20926;-74
2024/02/26 08:55:58;;;;;;;6.30;3.80;;;9.10;99.90;;;;;;5054741;28;20451;-75
2024/02/26 08:58:43;;;;;;;5.37;2.20;;;9.10;99.90;;;;;;5057555;28;20532;-74
2024/02/26 09:01:30;;;;;;;5.23;2.87;;;9.20;99.90;;;;;;5057550;28;20797;-74
2024/02/26 09:04:16;;;;;;;6.47;3.00;;;9.30;99.90;;;;;;5053635;28;20806;-74
2024/02/26 09:07:02;;;;;;;3.83;2.60;;;9.30;99.90;;;;;;5055756;28;20797;-74
2024/02/26 09:09:47;;;;;;;5.33;2.37;;;9.40;99.90;;;;;;5054230;28;20438;-75
2024/02/26 09:12:33;;;;;;;5.10;3.20;;;9.40;99.90;;;;;;5055166;28;20461;-74
2024/02/26 09:15:18;;;;;;;8.50;5.07;;;9.50;99.90;;;;;;5055251;28;20449;-74
2024/02/26 09:18:06;;;;;;;8.37;5.37;;;9.60;99.90;;;;;;5054949;28;20462;-74
2024/02/26 09:20:52;;;;;;;5.27;3.43;;;9.60;99.90;;;;;;5054388;28;20455;-74
2024/02/26 09:23:37;;;;;;;13.07;9.97;;;9.60;99.90;;;;;;5053568;28;20458;-75
2024/02/26 09:26:23;;;;;;;6.87;5.30;;;9.70;99.90;;;;;;5049435;28;20433;-74
2024/02/26 09:29:09;;;;;;;3.87;2.80;;;9.70;99.90;;;;;;5054942;28;20439;-75
2024/02/26 09:31:54;;;;;;;3.50;2.70;;;9.80;99.90;;;;;;5055798;28;20449;-74
2024/02/26 09:34:42;;;;;;;2.53;1.20;;;9.80;99.90;;;;;;5054909;28;21113;-74
2024/02/26 09:37:28;;;;;;;2.43;1.60;;;10.00;99.90;;;;;;5053442;28;20462;-74
2024/02/26 09:40:14;;;;;;;3.10;1.43;;;10.00;99.90;;;;;;5055532;28;20562;-75
2024/02/26 09:43:01;;;;;;;2.73;1.30;;;10.10;99.90;;;;;;5052875;28;20834;-74
2024/02/26 09:45:47;;;;;;;3.10;1.53;;;10.10;99.90;;;;;;5059012;28;20412;-74
2024/02/26 09:48:35;;;;;;;2.50;1.30;;;10.00;99.90;;;;;;5056181;28;20478;-72
2024/02/26 09:51:24;;;;;;;2.10;1.33;;;10.10;99.90;;;;;;5051777;28;20907;-75
2024/02/26 09:54:11;;;;;;;4.33;1.37;;;10.00;99.90;;;;;;5056090;28;20486;-74
2024/02/26 09:57:01;;;;;;;5.00;1.60;;;10.00;99.90;;;;;;5055013;28;20453;-75
2024/02/26 09:59:49;;;;;;;2.37;1.50;;;10.10;99.90;;;;;;5051696;28;20442;-74
2024/02/26 10:02:39;;;;;;;1.80;1.30;;;10.10;99.90;;;;;;5055258;28;20561;-74
2024/02/26 10:05:26;;;;;;;2.60;1.50;;;10.10;99.90;;;;;;5051705;28;20970;-75
2024/02/26 10:08:15;;;;;;;2.70;1.70;;;10.10;99.90;;;;;;5053955;28;20462;-74
2024/02/26 10:11:01;;;;;;;2.17;1.40;;;10.20;99.90;;;;;;5049363;28;20450;-74
2024/02/26 10:13:47;;;;;;;2.03;1.20;;;10.30;99.90;;;;;;5054722;28;20481;-75
2024/02/26 10:16:35;;;;;;;1.73;1.40;;;10.30;99.90;;;;;;5055453;28;20814;-74
2024/02/26 10:19:27;;;;;;;5.87;1.40;;;10.30;99.90;;;;;;5052591;28;20432;-74
2024/02/26 10:22:13;;;;;;;3.50;1.50;;;10.40;99.90;;;;;;5048813;28;20505;-74
2024/02/26 10:25:00;;;;;;;2.40;1.50;;;10.40;99.90;;;;;;5044727;28;21350;-74
2024/02/26 10:27:47;;;;;;;2.40;1.23;;;10.40;99.90;;;;;;5051985;28;21027;-74
2024/02/26 10:30:38;;;;;;;3.10;1.70;;;10.40;99.90;;;;;;5044778;28;20465;-74
2024/02/26 10:33:23;;;;;;;3.23;1.47;;;10.40;99.90;;;;;;5048632;28;20460;-75
2024/02/26 10:36:10;;;;;;;3.23;1.67;;;10.50;99.90;;;;;;5048486;28;20962;-75
2024/02/26 10:38:56;;;;;;;2.37;1.50;;;10.50;99.90;;;;;;5049479;28;20862;-74
2024/02/26 10:41:44;;;;;;;3.00;1.80;;;10.60;99.90;;;;;;5047750;28;20477;-74
2024/02/26 10:44:29;;;;;;;4.20;1.93;;;10.70;99.90;;;;;;5046089;28;20528;-75
2024/02/26 10:47:16;;;;;;;2.33;1.30;;;10.70;99.90;;;;;;5047332;28;20512;-74
2024/02/26 10:50:03;;;;;;;2.27;1.23;;;10.80;99.90;;;;;;5051227;28;20450;-76
2024/02/26 10:52:49;;;;;;;2.80;1.40;;;11.10;99.90;;;;;;5054553;28;20586;-74
2024/02/26 10:55:37;;;;;;;2.13;1.50;;;11.30;99.90;;;;;;5053749;28;20556;-74
2024/02/26 10:58:25;;;;;;;2.50;1.40;;;11.40;99.90;;;;;;5052688;28;20459;-74
2024/02/26 11:01:12;;;;;;;2.90;1.20;;;11.60;99.90;;;;;;5050077;28;20497;-74
2024/02/26 11:03:58;;;;;;;2.27;1.40;;;11.80;99.90;;;;;;5051708;28;20528;-72
2024/02/26 11:06:44;;;;;;;2.77;1.60;;;12.00;99.90;;;;;;5053602;28;20466;-73
2024/02/26 11:09:29;;;;;;;1.83;0.97;;;12.00;99.90;;;;;;5051004;28;20434;-72
2024/02/26 11:12:15;;;;;;;1.80;1.23;;;12.10;99.90;;;;;;5049724;28;20443;-75
2024/02/26 11:15:03;;;;;;;5.77;1.40;;;12.10;99.90;;;;;;5051347;28;21060;-73
2024/02/26 11:17:49;;;;;;;2.33;1.13;;;12.10;99.90;;;;;;5053632;28;20467;-73
2024/02/26 11:20:39;;;;;;;2.50;1.27;;;12.10;99.90;;;;;;5052935;28;20463;-75
2024/02/26 11:23:25;;;;;;;5.27;1.50;;;12.10;99.90;;;;;;5051965;28;20478;-73
2024/02/26 11:26:12;;;;;;;2.47;0.80;;;12.10;99.90;;;;;;5049605;28;20465;-73
2024/02/26 11:28:58;;;;;;;2.30;1.27;;;12.10;99.90;;;;;;5052954;28;20457;-74
2024/02/26 11:31:45;;;;;;;1.70;1.10;;;12.20;99.90;;;;;;5056486;28;20456;-73
2024/02/26 11:34:31;;;;;;;3.00;1.33;;;12.10;99.90;;;;;;5051339;28;20470;-73
2024/02/26 11:37:18;;;;;;;1.50;0.93;;;12.10;99.90;;;;;;5049760;28;20928;-75
2024/02/26 11:40:04;;;;;;;2.27;1.07;;;12.10;99.90;;;;;;5053202;28;20430;-73
2024/02/26 11:42:51;;;;;;;2.20;1.10;;;12.10;99.90;;;;;;5054611;28;20798;-73
2024/02/26 11:45:54;;;;;;;2.47;1.30;;;12.20;99.90;;;;;;5046891;28;20522;-75
2024/02/26 11:48:41;;;;;;;2.57;1.30;;;12.20;99.90;;;;;;5050761;28;20425;-73
2024/02/26 11:51:27;;;;;;;2.73;1.10;;;12.20;99.90;;;;;;5052410;28;20394;-73
2024/02/26 11:54:34;;;;;;;2.10;1.10;;;12.10;99.90;;;;;;5047567;28;20617;-73
2024/02/26 11:57:28;;;;;;;1.53;0.77;;;12.20;99.90;;;;;;5048225;28;20556;-74
2024/02/26 12:00:16;;;;;;;2.00;0.87;;;12.30;99.90;;;;;;5049182;28;20451;-74
2024/02/26 12:03:05;;;;;;;2.20;1.17;;;12.30;99.90;;;;;;5054095;28;20430;-73
2024/02/26 12:05:53;;;;;;;2.50;1.03;;;12.40;99.90;;;;;;5053126;28;20429;-74
2024/02/26 12:08:40;;;;;;;1.87;1.00;;;12.50;99.90;;;;;;5053908;28;20822;-74
2024/02/26 12:11:28;;;;;;;3.80;1.30;;;12.60;99.90;;;;;;5053772;28;20813;-74
2024/02/26 12:14:14;;;;;;;2.00;0.93;;;12.70;99.90;;;;;;5054268;28;20446;-74
2024/02/26 12:17:00;;;;;;;2.50;1.23;;;12.70;99.90;;;;;;5055613;28;20462;-75
2024/02/26 12:19:46;;;;;;;1.50;0.80;;;12.80;99.90;;;;;;5053005;28;20446;-74
2024/02/26 12:22:34;;;;;;;2.10;1.20;;;12.70;99.90;;;;;;5053996;28;20455;-75
2024/02/26 12:25:24;;;;;;;1.40;0.80;;;12.70;99.90;;;;;;5052246;28;20409;-74
2024/02/26 12:28:10;;;;;;;1.73;0.77;;;12.70;99.90;;;;;;5048031;28;20502;-74
2024/02/26 12:30:56;;;;;;;2.23;0.93;;;12.70;99.90;;;;;;5047178;28;20608;-74
2024/02/26 12:33:42;;;;;;;3.43;0.90;;;12.70;99.90;;;;;;5049426;28;20496;-74
2024/02/26 12:36:28;;;;;;;1.60;0.77;;;12.70;99.90;;;;;;5058540;28;20488;-74
2024/02/26 12:39:15;;;;;;;1.70;0.80;;;12.80;99.90;;;;;;5050170;28;20459;-74
2024/02/26 12:42:01;;;;;;;2.13;1.00;;;12.80;99.90;;;;;;5050433;28;20433;-74
2024/02/26 12:44:47;;;;;;;2.13;1.17;;;12.90;99.90;;;;;;5057295;28;20541;-72
2024/02/26 12:47:32;;;;;;;2.13;1.00;;;12.90;99.90;;;;;;5057826;28;20462;-74
2024/02/26 12:50:18;;;;;;;1.47;0.70;;;13.00;99.90;;;;;;5053612;28;20527;-73
2024/02/26 12:53:04;;;;;;;1.60;0.63;;;13.00;99.90;;;;;;5054024;28;20489;-74
2024/02/26 12:55:51;;;;;;;2.57;1.00;;;13.10;99.90;;;;;;5052416;28;20816;-74
2024/02/26 12:58:39;;;;;;;1.57;0.80;;;13.20;99.90;;;;;;5054340;28;20431;-74
2024/02/26 13:01:26;;;;;;;1.90;0.90;;;13.30;99.90;;;;;;5056377;28;20446;-74
2024/02/26 13:04:12;;;;;;;4.33;0.83;;;13.50;99.90;;;;;;5053186;28;20527;-74
2024/02/26 13:07:02;;;;;;;2.70;0.53;;;13.70;99.90;;;;;;5053699;28;20824;-75
2024/02/26 13:09:48;;;;;;;2.13;1.10;;;13.70;99.90;;;;;;5059327;28;20430;-74
2024/02/26 13:12:35;;;;;;;2.90;0.97;;;13.70;99.90;;;;;;5056388;28;21077;-73
2024/02/26 13:15:23;;;;;;;1.60;0.90;;;13.60;99.90;;;;;;5055675;28;20444;-74
2024/02/26 13:18:12;;;;;;;2.40;0.80;;;13.50;99.90;;;;;;5054253;28;20483;-74
2024/02/26 13:21:09;;;;;;;5.93;1.00;;;13.50;99.90;;;;;;5054464;28;20506;-74
2024/02/26 13:23:55;;;;;;;4.30;1.03;;;13.50;99.90;;;;;;5057685;28;20426;-74
2024/02/26 13:26:41;;;;;;;2.13;0.93;;;13.40;99.90;;;;;;5058776;28;20513;-75
2024/02/26 13:29:28;;;;;;;2.13;0.80;;;13.40;99.90;;;;;;5057717;28;20439;-75
2024/02/26 13:32:13;;;;;;;1.60;0.70;;;13.30;99.90;;;;;;5059489;28;20434;-72
2024/02/26 13:35:07;;;;;;;1.50;0.80;;;13.30;99.90;;;;;;5055009;28;20657;-74
2024/02/26 13:37:52;;;;;;;1.67;0.80;;;13.30;99.90;;;;;;5056042;28;20495;-75
2024/02/26 13:40:39;;;;;;;4.80;0.73;;;13.30;99.90;;;;;;5056727;28;20469;-74
2024/02/26 13:43:25;;;;;;;2.33;1.10;;;13.20;99.90;;;;;;5052652;28;20412;-73
2024/02/26 13:46:13;;;;;;;1.90;1.20;;;13.30;99.90;;;;;;5050467;28;21061;-75
2024/02/26 13:48:59;;;;;;;2.00;1.10;;;13.40;99.90;;;;;;5053989;28;20570;-74
2024/02/26 13:51:44;;;;;;;2.17;1.13;;;13.50;99.90;;;;;;5049454;28;20477;-74
2024/02/26 13:54:30;;;;;;;2.53;1.10;;;13.50;99.90;;;;;;5055118;28;20487;-74
2024/02/26 13:57:16;;;;;;;2.10;1.10;;;13.60;99.90;;;;;;5053039;28;20505;-75
2024/02/26 14:00:01;;;;;;;2.00;1.00;;;13.60;99.90;;;;;;5052705;28;21027;-74
2024/02/26 14:02:48;;;;;;;2.77;1.23;;;13.60;99.90;;;;;;5053650;28;20975;-75
2024/02/26 14:05:34;;;;;;;2.10;1.00;;;13.60;99.90;;;;;;5049986;28;20454;-74
2024/02/26 14:08:20;;;;;;;4.73;1.07;;;13.60;99.90;;;;;;5045744;28;20582;-74
2024/02/26 14:11:05;;;;;;;2.30;1.20;;;13.70;99.90;;;;;;5045759;28;20465;-73
2024/02/26 14:13:51;;;;;;;3.33;1.00;;;13.70;99.90;;;;;;5048031;28;20480;-74
2024/02/26 14:16:37;;;;;;;3.83;2.20;;;13.80;99.90;;;;;;5053269;28;20546;-74
2024/02/26 14:19:24;;;;;;;2.73;1.27;;;13.90;99.90;;;;;;5047542;28;20451;-74
2024/02/26 14:22:09;;;;;;;1.83;0.90;;;13.90;99.90;;;;;;5046480;28;20551;-74
2024/02/26 14:24:55;;;;;;;3.57;1.50;;;13.90;99.90;;;;;;5052410;28;20959;-74
2024/02/26 14:27:41;;;;;;;3.00;1.47;;;13.90;99.90;;;;;;5051933;28;20434;-74
2024/02/26 14:30:26;;;;;;;2.63;1.40;;;13.90;99.90;;;;;;5050823;28;20414;-74
2024/02/26 14:33:12;;;;;;;2.67;1.43;;;13.90;99.90;;;;;;5050330;28;20436;-73